createdAt,value
2018-06-30T00:01:49.832Z,18.98
2018-06-30T00:04:18.551Z,18.99
2018-06-30T00:06:47.264Z,18.93
2018-06-30T00:09:15.917Z,18.90
2018-06-30T00:11:44.569Z,18.87
2018-06-30T00:14:13.285Z,18.83
2018-06-30T00:16:41.880Z,18.83
2018-06-30T00:19:10.600Z,18.78
2018-06-30T00:21:39.241Z,18.73
2018-06-30T00:24:07.954Z,18.69
2018-06-30T00:26:36.658Z,18.67
2018-06-30T00:29:05.387Z,18.71
2018-06-30T00:31:35.008Z,18.67
2018-06-30T00:34:05.811Z,18.63
2018-06-30T00:36:34.414Z,18.58
2018-06-30T00:39:04.213Z,18.50
2018-06-30T00:41:33.180Z,18.49
2018-06-30T00:44:01.799Z,18.47
2018-06-30T00:46:30.466Z,18.54
2018-06-30T00:48:59.104Z,18.47
2018-06-30T00:51:27.705Z,18.43
2018-06-30T00:53:57.137Z,18.43
2018-06-30T00:56:25.827Z,18.38
2018-06-30T00:58:54.427Z,18.34
2018-06-30T01:01:23.384Z,18.27
2018-06-30T01:03:52.044Z,18.28
2018-06-30T01:06:20.734Z,18.28
2018-06-30T01:08:50.895Z,18.27
2018-06-30T01:11:19.581Z,18.22
2018-06-30T01:13:48.356Z,18.18
2018-06-30T01:16:17.151Z,18.20
2018-06-30T01:18:46.409Z,18.10
2018-06-30T01:21:15.700Z,18.13
2018-06-30T01:23:45.829Z,18.05
2018-06-30T01:26:14.926Z,17.97
2018-06-30T01:28:44.239Z,17.94
2018-06-30T01:31:19.515Z,17.86
2018-06-30T01:33:49.458Z,17.95
2018-06-30T01:36:19.664Z,17.82
2018-06-30T01:38:49.129Z,17.82
2018-06-30T01:41:17.789Z,17.80
2018-06-30T01:43:47.225Z,17.79
2018-06-30T01:46:16.597Z,17.77
2018-06-30T01:48:46.046Z,17.77
2018-06-30T01:51:14.681Z,17.66
2018-06-30T01:53:44.064Z,17.73
2018-06-30T01:56:12.744Z,17.64
2018-06-30T01:58:43.209Z,17.57
2018-06-30T02:01:12.573Z,17.53
2018-06-30T02:03:41.242Z,17.57
2018-06-30T02:06:10.158Z,17.57
2018-06-30T02:08:39.977Z,17.50
2018-06-30T02:11:09.723Z,17.41
2018-06-30T02:13:40.020Z,17.40
2018-06-30T02:16:09.771Z,17.26
2018-06-30T02:18:39.899Z,17.27
2018-06-30T02:21:09.945Z,17.25
2018-06-30T02:23:39.740Z,17.28
2018-06-30T02:26:09.826Z,17.39
2018-06-30T02:28:41.843Z,17.26
2018-06-30T02:31:11.210Z,17.24
2018-06-30T02:33:39.827Z,17.22
2018-06-30T02:36:10.572Z,17.17
2018-06-30T02:38:39.345Z,17.11
2018-06-30T02:41:09.166Z,17.13
2018-06-30T02:43:38.634Z,17.12
2018-06-30T02:46:08.021Z,17.12
2018-06-30T02:48:36.631Z,17.13
2018-06-30T02:51:05.253Z,17.08
2018-06-30T02:53:34.008Z,17.09
2018-06-30T02:56:04.570Z,17.02
2018-06-30T02:58:33.909Z,17.03
2018-06-30T03:01:04.169Z,16.99
2018-06-30T03:03:34.617Z,16.95
2018-06-30T03:06:03.254Z,16.92
2018-06-30T03:08:33.192Z,16.95
2018-06-30T03:11:02.085Z,16.87
2018-06-30T03:13:30.722Z,16.85
2018-06-30T03:15:59.755Z,16.79
2018-06-30T03:18:28.608Z,16.82
2018-06-30T03:20:57.268Z,16.79
2018-06-30T03:23:25.895Z,16.76
2018-06-30T03:25:54.638Z,16.76
2018-06-30T03:28:23.337Z,16.73
2018-06-30T03:30:52.009Z,16.75
2018-06-30T03:33:20.682Z,16.72
2018-06-30T03:35:51.074Z,16.78
2018-06-30T03:38:20.618Z,16.73
2018-06-30T03:40:50.757Z,16.68
2018-06-30T03:43:20.448Z,16.68
2018-06-30T03:45:50.058Z,16.69
2018-06-30T03:48:18.802Z,16.66
2018-06-30T03:50:47.430Z,16.62
2018-06-30T03:53:16.070Z,16.61
2018-06-30T03:55:44.922Z,16.65
2018-06-30T03:58:13.596Z,16.63
2018-06-30T04:00:42.216Z,16.69
2018-06-30T04:03:10.818Z,16.65
2018-06-30T04:05:39.800Z,16.69
2018-06-30T04:08:08.435Z,16.67
2018-06-30T04:10:37.020Z,16.75
2018-06-30T04:13:06.234Z,16.77
2018-06-30T04:15:35.873Z,16.76
2018-06-30T04:18:05.394Z,16.78
2018-06-30T04:20:34.064Z,16.84
2018-06-30T04:23:02.696Z,16.84
2018-06-30T04:25:31.459Z,16.92
2018-06-30T04:28:00.117Z,16.87
2018-06-30T04:30:29.252Z,16.85
2018-06-30T04:32:58.073Z,16.84
2018-06-30T04:35:26.841Z,16.94
2018-06-30T04:37:55.949Z,16.91
2018-06-30T04:40:26.317Z,16.89
2018-06-30T04:42:55.135Z,16.95
2018-06-30T04:45:24.045Z,16.92
2018-06-30T04:47:53.939Z,16.96
2018-06-30T04:50:23.071Z,16.99
2018-06-30T04:52:51.851Z,17.12
2018-06-30T04:55:21.426Z,17.18
2018-06-30T04:57:51.106Z,17.10
2018-06-30T05:00:20.261Z,17.05
2018-06-30T05:02:49.642Z,17.04
2018-06-30T05:05:18.650Z,17.06
2018-06-30T05:07:47.576Z,17.13
2018-06-30T05:10:16.189Z,17.24
2018-06-30T05:12:44.814Z,17.31
2018-06-30T05:15:13.402Z,17.28
2018-06-30T05:17:42.590Z,17.32
2018-06-30T05:20:11.213Z,17.38
2018-06-30T05:22:39.864Z,17.36
2018-06-30T05:25:08.503Z,17.35
2018-06-30T05:27:37.160Z,17.37
2018-06-30T05:30:06.093Z,17.37
2018-06-30T05:32:34.761Z,17.48
2018-06-30T05:35:04.101Z,17.56
2018-06-30T05:37:33.940Z,17.53
2018-06-30T05:40:02.743Z,17.68
2018-06-30T05:42:31.395Z,17.68
2018-06-30T05:45:01.005Z,17.68
2018-06-30T05:47:30.247Z,17.65
2018-06-30T05:49:59.178Z,17.60
2018-06-30T05:52:27.840Z,17.68
2018-06-30T05:54:56.460Z,17.70
2018-06-30T05:57:25.682Z,17.77
2018-06-30T05:59:54.492Z,17.83
2018-06-30T06:02:23.106Z,17.91
2018-06-30T06:04:53.647Z,18.04
2018-06-30T06:07:22.326Z,18.01
2018-06-30T06:09:51.575Z,17.99
2018-06-30T06:12:21.386Z,18.05
2018-06-30T06:14:50.473Z,18.02
2018-06-30T06:17:19.139Z,18.09
2018-06-30T06:19:47.797Z,18.13
2018-06-30T06:22:18.211Z,18.11
2018-06-30T06:24:47.142Z,18.19
2018-06-30T06:27:16.767Z,18.17
2018-06-30T06:29:46.124Z,18.39
2018-06-30T06:32:16.825Z,18.35
2018-06-30T06:34:45.510Z,18.33
2018-06-30T06:37:14.236Z,18.48
2018-06-30T06:39:43.266Z,18.52
2018-06-30T06:42:12.493Z,18.53
2018-06-30T06:44:41.109Z,18.73
2018-06-30T06:47:10.512Z,18.85
2018-06-30T06:49:40.010Z,18.93
2018-06-30T06:52:08.665Z,19.07
2018-06-30T06:54:37.680Z,19.35
2018-06-30T06:57:06.607Z,19.58
2018-06-30T06:59:35.341Z,19.64
2018-06-30T07:02:04.437Z,19.76
2018-06-30T07:04:33.427Z,20.11
2018-06-30T07:07:02.446Z,20.32
2018-06-30T07:09:38.483Z,20.41
2018-06-30T07:12:07.153Z,20.79
2018-06-30T07:14:37.141Z,21.01
2018-06-30T07:17:05.966Z,21.22
2018-06-30T07:19:34.682Z,21.57
2018-06-30T07:22:04.220Z,21.69
2018-06-30T07:24:33.215Z,22.04
2018-06-30T07:27:01.879Z,22.40
2018-06-30T07:29:30.524Z,22.76
2018-06-30T07:31:59.153Z,23.05
2018-06-30T07:34:28.518Z,23.35
2018-06-30T07:36:57.344Z,23.83
2018-06-30T07:39:26.576Z,23.89
2018-06-30T07:41:55.417Z,23.96
2018-06-30T07:44:30.361Z,24.09
2018-06-30T07:46:59.020Z,24.16
2018-06-30T07:49:27.709Z,24.08
2018-06-30T07:51:56.426Z,24.13
2018-06-30T07:54:25.150Z,24.13
2018-06-30T07:56:54.170Z,23.99
2018-06-30T07:59:22.841Z,23.85
2018-06-30T08:01:51.527Z,23.92
2018-06-30T08:04:20.495Z,24.13
2018-06-30T08:06:49.613Z,24.22
2018-06-30T08:09:18.613Z,24.03
2018-06-30T08:11:47.866Z,24.07
2018-06-30T08:14:16.619Z,24.38
2018-06-30T08:16:45.279Z,24.69
2018-06-30T08:19:14.381Z,24.95
2018-06-30T08:21:43.623Z,25.32
2018-06-30T08:24:12.987Z,25.57
2018-06-30T08:26:41.798Z,25.38
2018-06-30T08:29:10.518Z,24.79
2018-06-30T08:31:39.414Z,24.75
2018-06-30T08:34:08.319Z,24.60
2018-06-30T08:36:36.977Z,24.71
2018-06-30T08:39:09.009Z,24.16
2018-06-30T08:41:37.704Z,23.50
2018-06-30T08:44:06.481Z,23.12
2018-06-30T08:46:35.147Z,23.44
2018-06-30T08:49:04.577Z,23.93
2018-06-30T08:51:33.562Z,24.27
2018-06-30T08:54:02.187Z,24.47
2018-06-30T08:56:30.902Z,24.22
2018-06-30T08:58:59.794Z,24.60
2018-06-30T09:01:28.470Z,25.51
2018-06-30T09:03:57.913Z,25.99
2018-06-30T09:06:26.569Z,25.85
2018-06-30T09:08:55.188Z,25.34
2018-06-30T09:11:23.942Z,24.63
2018-06-30T09:13:52.608Z,24.14
2018-06-30T09:16:21.360Z,23.71
2018-06-30T09:18:50.239Z,23.10
2018-06-30T09:21:18.915Z,22.88
2018-06-30T09:23:47.708Z,22.99
2018-06-30T09:26:16.477Z,23.75
2018-06-30T09:28:45.754Z,23.53
2018-06-30T09:31:14.404Z,23.63
2018-06-30T09:33:43.172Z,24.15
2018-06-30T09:36:11.977Z,24.70
2018-06-30T09:38:40.688Z,24.87
2018-06-30T09:41:09.838Z,24.96
2018-06-30T09:43:38.450Z,24.62
2018-06-30T09:46:07.166Z,24.30
2018-06-30T09:48:35.886Z,23.72
2018-06-30T09:51:04.696Z,23.58
2018-06-30T09:53:33.346Z,23.31
2018-06-30T09:56:02.252Z,23.01
2018-06-30T09:58:31.020Z,22.88
2018-06-30T10:01:05.026Z,22.83
2018-06-30T10:03:33.720Z,23.10
2018-06-30T10:06:02.478Z,22.87
2018-06-30T10:08:31.407Z,22.98
2018-06-30T10:11:00.258Z,23.07
2018-06-30T10:13:29.640Z,23.19
2018-06-30T10:15:58.299Z,23.39
2018-06-30T10:18:26.904Z,23.67
2018-06-30T10:20:56.087Z,23.78
2018-06-30T10:23:24.856Z,23.86
2018-06-30T10:25:53.937Z,23.78
2018-06-30T10:28:23.259Z,23.89
2018-06-30T10:30:52.109Z,24.02
2018-06-30T10:33:21.040Z,23.93
2018-06-30T10:35:50.033Z,23.73
2018-06-30T10:38:19.155Z,23.67
2018-06-30T10:40:47.879Z,23.66
2018-06-30T10:43:16.869Z,23.87
2018-06-30T10:45:45.812Z,24.10
2018-06-30T10:48:14.612Z,24.25
2018-06-30T10:50:43.401Z,24.46
2018-06-30T10:53:12.144Z,24.77
2018-06-30T10:55:41.192Z,25.39
2018-06-30T10:58:10.244Z,25.74
2018-06-30T11:00:39.269Z,25.83
2018-06-30T11:03:07.925Z,25.67
2018-06-30T11:05:36.841Z,25.56
2018-06-30T11:08:05.574Z,25.17
2018-06-30T11:10:34.582Z,24.88
2018-06-30T11:13:03.206Z,24.96
2018-06-30T11:15:31.817Z,25.20
2018-06-30T11:18:00.494Z,25.22
2018-06-30T11:20:29.415Z,24.38
2018-06-30T11:22:58.727Z,23.99
2018-06-30T11:25:27.812Z,23.68
2018-06-30T11:27:56.804Z,23.86
2018-06-30T11:30:25.434Z,24.19
2018-06-30T11:32:54.185Z,24.50
2018-06-30T11:35:23.243Z,24.36
2018-06-30T11:37:52.205Z,24.05
2018-06-30T11:40:20.889Z,23.83
2018-06-30T11:42:49.622Z,24.38
2018-06-30T11:45:18.262Z,24.85
2018-06-30T11:47:49.945Z,25.18
2018-06-30T11:50:19.081Z,25.46
2018-06-30T11:52:48.371Z,25.48
2018-06-30T11:55:17.007Z,25.58
2018-06-30T11:57:46.109Z,25.43
2018-06-30T12:00:14.763Z,25.46
2018-06-30T12:02:43.404Z,26.21
2018-06-30T12:05:12.021Z,28.01
2018-06-30T12:07:41.110Z,30.15
2018-06-30T12:10:10.938Z,32.37
2018-06-30T12:12:39.704Z,33.65
2018-06-30T12:15:08.586Z,32.60
2018-06-30T12:17:37.278Z,31.09
2018-06-30T12:20:06.535Z,29.58
2018-06-30T12:22:35.679Z,28.16
2018-06-30T12:25:04.462Z,26.87
2018-06-30T12:27:33.222Z,26.21
2018-06-30T12:30:01.984Z,25.45
2018-06-30T12:32:30.675Z,25.23
2018-06-30T12:34:59.346Z,24.78
2018-06-30T12:37:27.988Z,24.25
2018-06-30T12:39:56.889Z,24.23
2018-06-30T12:42:25.590Z,24.68
2018-06-30T12:44:54.286Z,25.09
2018-06-30T12:47:23.009Z,25.24
2018-06-30T12:49:52.418Z,25.79
2018-06-30T12:52:21.189Z,28.83
2018-06-30T12:54:50.138Z,32.76
2018-06-30T12:57:18.889Z,35.88
2018-06-30T12:59:48.027Z,37.82
2018-06-30T13:02:16.762Z,38.26
2018-06-30T13:04:45.447Z,37.20
2018-06-30T13:07:14.264Z,34.29
2018-06-30T13:09:42.989Z,33.64
2018-06-30T13:12:12.335Z,35.84
2018-06-30T13:14:41.429Z,38.13
2018-06-30T13:17:10.389Z,40.48
2018-06-30T13:19:40.101Z,41.58
2018-06-30T13:22:08.866Z,43.06
2018-06-30T13:24:37.859Z,44.37
2018-06-30T13:27:06.892Z,43.94
2018-06-30T13:29:35.564Z,40.31
2018-06-30T13:32:04.392Z,37.12
2018-06-30T13:34:33.211Z,33.90
2018-06-30T13:37:01.973Z,31.28
2018-06-30T13:39:30.696Z,29.76
2018-06-30T13:42:00.079Z,28.52
2018-06-30T13:44:30.296Z,27.66
2018-06-30T13:46:59.012Z,26.59
2018-06-30T13:49:28.079Z,26.43
2018-06-30T13:51:56.854Z,25.71
2018-06-30T13:54:25.609Z,25.28
2018-06-30T13:56:54.365Z,26.43
2018-06-30T13:59:23.163Z,27.18
2018-06-30T14:01:51.963Z,28.10
2018-06-30T14:04:20.766Z,29.10
2018-06-30T14:06:49.788Z,30.66
2018-06-30T14:09:18.921Z,33.55
2018-06-30T14:11:47.741Z,35.70
2018-06-30T14:14:16.396Z,36.77
2018-06-30T14:16:45.185Z,36.61
2018-06-30T14:19:13.910Z,34.96
2018-06-30T14:21:42.627Z,32.98
2018-06-30T14:24:11.460Z,30.98
2018-06-30T14:26:40.145Z,29.14
2018-06-30T14:29:08.804Z,27.96
2018-06-30T14:31:37.500Z,27.07
2018-06-30T14:34:06.701Z,25.96
2018-06-30T14:36:36.138Z,25.49
2018-06-30T14:39:09.167Z,25.34
2018-06-30T14:41:38.991Z,25.34
2018-06-30T14:44:08.377Z,25.37
2018-06-30T14:46:39.644Z,25.42
2018-06-30T14:49:08.632Z,25.47
2018-06-30T14:51:37.649Z,25.25
2018-06-30T14:54:06.769Z,25.06
2018-06-30T14:56:35.489Z,25.10
2018-06-30T14:59:05.004Z,24.89
2018-06-30T15:01:35.858Z,24.86
2018-06-30T15:04:11.514Z,24.67
2018-06-30T15:06:40.335Z,24.70
2018-06-30T15:09:13.267Z,24.76
2018-06-30T15:11:43.791Z,24.79
2018-06-30T15:14:13.353Z,24.84
2018-06-30T15:16:42.083Z,24.71
2018-06-30T15:19:11.150Z,24.81
2018-06-30T15:21:39.816Z,25.04
2018-06-30T15:24:09.976Z,25.12
2018-06-30T15:26:38.676Z,25.34
2018-06-30T15:29:07.402Z,25.29
2018-06-30T15:31:36.080Z,25.43
2018-06-30T15:34:05.258Z,25.47
2018-06-30T15:36:34.016Z,25.39
2018-06-30T15:39:02.843Z,25.34
2018-06-30T15:41:32.227Z,25.23
2018-06-30T15:44:01.272Z,25.16
2018-06-30T15:46:29.935Z,24.87
2018-06-30T15:48:58.947Z,24.56
2018-06-30T15:51:28.191Z,24.28
2018-06-30T15:53:56.858Z,24.02
2018-06-30T15:56:25.569Z,23.65
2018-06-30T15:58:54.568Z,23.43
2018-06-30T16:01:23.426Z,23.18
2018-06-30T16:03:52.185Z,22.90
2018-06-30T16:06:21.236Z,22.82
2018-06-30T16:08:50.155Z,22.78
2018-06-30T16:11:18.791Z,22.86
2018-06-30T16:13:47.479Z,23.03
2018-06-30T16:16:16.210Z,23.15
2018-06-30T16:18:44.943Z,23.08
2018-06-30T16:21:14.007Z,23.05
2018-06-30T16:23:42.823Z,23.11
2018-06-30T16:26:11.596Z,23.02
2018-06-30T16:28:40.666Z,22.92
2018-06-30T16:31:09.333Z,22.85
2018-06-30T16:33:38.038Z,22.72
2018-06-30T16:36:06.748Z,22.82
2018-06-30T16:38:35.447Z,22.83
2018-06-30T16:41:04.198Z,22.70
2018-06-30T16:43:33.032Z,22.70
2018-06-30T16:46:01.827Z,22.50
2018-06-30T16:48:30.961Z,22.40
2018-06-30T16:50:59.694Z,22.33
2018-06-30T16:53:28.355Z,22.22
2018-06-30T16:55:57.286Z,22.24
2018-06-30T16:58:26.331Z,22.17
2018-06-30T17:00:55.183Z,22.28
2018-06-30T17:03:24.060Z,22.22
2018-06-30T17:05:52.865Z,22.30
2018-06-30T17:08:21.782Z,22.26
2018-06-30T17:10:51.831Z,22.31
2018-06-30T17:13:21.201Z,22.33
2018-06-30T17:15:50.283Z,22.25
2018-06-30T17:18:19.207Z,22.19
2018-06-30T17:20:48.365Z,22.22
2018-06-30T17:23:17.417Z,22.17
2018-06-30T17:25:47.037Z,22.10
2018-06-30T17:28:16.718Z,22.06
2018-06-30T17:30:46.017Z,22.03
2018-06-30T17:33:14.882Z,21.97
2018-06-30T17:35:44.560Z,22.09
2018-06-30T17:38:13.753Z,22.05
2018-06-30T17:40:44.567Z,22.04
2018-06-30T17:43:13.522Z,22.00
2018-06-30T17:45:42.486Z,22.00
2018-06-30T17:48:11.717Z,21.91
2018-06-30T17:50:40.710Z,21.85
2018-06-30T17:53:10.163Z,21.80
2018-06-30T17:55:40.135Z,21.86
2018-06-30T17:58:10.535Z,21.84
2018-06-30T18:00:40.362Z,21.92
2018-06-30T18:03:09.098Z,21.84
2018-06-30T18:05:38.142Z,21.82
2018-06-30T18:08:06.785Z,21.69
2018-06-30T18:10:35.582Z,21.71
2018-06-30T18:13:04.398Z,21.71
2018-06-30T18:15:33.062Z,21.68
2018-06-30T18:18:02.048Z,21.60
2018-06-30T18:20:31.650Z,21.55
2018-06-30T18:23:00.345Z,21.44
2018-06-30T18:25:29.295Z,21.48
2018-06-30T18:27:58.161Z,21.45
2018-06-30T18:30:26.884Z,21.29
2018-06-30T18:32:55.606Z,21.31
2018-06-30T18:35:24.439Z,21.25
2018-06-30T18:37:53.195Z,21.24
2018-06-30T18:40:22.038Z,21.26
2018-06-30T18:42:50.770Z,21.24
2018-06-30T18:45:19.823Z,21.22
2018-06-30T18:47:48.802Z,21.06
2018-06-30T18:50:17.527Z,21.01
2018-06-30T18:52:46.379Z,20.93
2018-06-30T18:55:15.230Z,20.91
2018-06-30T18:57:44.073Z,20.97
2018-06-30T19:00:13.094Z,20.90
2018-06-30T19:02:42.205Z,20.93
2018-06-30T19:05:10.921Z,20.92
2018-06-30T19:07:39.938Z,20.85
2018-06-30T19:10:09.120Z,20.77
2018-06-30T19:12:41.064Z,20.73
2018-06-30T19:15:09.986Z,20.76
2018-06-30T19:17:38.698Z,20.75
2018-06-30T19:20:07.481Z,20.63
2018-06-30T19:22:36.439Z,20.56
2018-06-30T19:25:05.314Z,20.62
2018-06-30T19:27:34.751Z,20.50
2018-06-30T19:30:03.765Z,20.42
2018-06-30T19:32:33.051Z,20.42
2018-06-30T19:35:01.904Z,20.39
2018-06-30T19:37:30.662Z,20.36
2018-06-30T19:39:59.495Z,20.26
2018-06-30T19:42:28.183Z,20.24
2018-06-30T19:44:57.441Z,20.29
2018-06-30T19:47:26.514Z,20.24
2018-06-30T19:49:57.071Z,20.22
2018-06-30T19:52:25.721Z,20.21
2018-06-30T19:54:54.809Z,20.15
2018-06-30T19:57:23.565Z,20.11
2018-06-30T19:59:52.708Z,20.11
2018-06-30T20:02:21.849Z,20.08
2018-06-30T20:04:50.938Z,20.02
2018-06-30T20:07:19.747Z,20.00
2018-06-30T20:09:48.939Z,19.93
2018-06-30T20:12:18.127Z,19.94
2018-06-30T20:14:46.865Z,19.93
2018-06-30T20:17:15.561Z,19.85
2018-06-30T20:19:44.602Z,19.91
2018-06-30T20:22:13.411Z,19.83
2018-06-30T20:24:42.129Z,19.85
2018-06-30T20:27:10.751Z,19.77
2018-06-30T20:29:39.862Z,19.76
2018-06-30T20:32:08.568Z,19.77
2018-06-30T20:34:37.596Z,19.69
2018-06-30T20:37:06.620Z,19.73
2018-06-30T20:39:35.674Z,19.69
2018-06-30T20:42:04.448Z,19.66
2018-06-30T20:44:33.232Z,19.59
2018-06-30T20:47:02.018Z,19.61
2018-06-30T20:49:31.123Z,19.60
2018-06-30T20:51:59.877Z,19.59
2018-06-30T20:54:28.508Z,19.48
2018-06-30T20:56:57.294Z,19.45
2018-06-30T20:59:26.716Z,19.40
2018-06-30T21:01:56.076Z,19.33
2018-06-30T21:04:25.898Z,19.32
2018-06-30T21:06:55.344Z,19.30
2018-06-30T21:09:24.303Z,19.30
2018-06-30T21:11:52.998Z,19.36
2018-06-30T21:14:21.651Z,19.27
2018-06-30T21:16:50.742Z,19.22
2018-06-30T21:19:21.411Z,19.17
2018-06-30T21:21:50.227Z,19.21
2018-06-30T21:24:19.128Z,19.15
2018-06-30T21:26:49.126Z,19.14
2018-06-30T21:29:17.877Z,19.10
2018-06-30T21:31:46.899Z,19.03
2018-06-30T21:34:15.860Z,18.97
2018-06-30T21:36:44.752Z,18.92
2018-06-30T21:39:14.031Z,18.90
2018-06-30T21:41:43.056Z,18.86
2018-06-30T21:44:12.254Z,18.83
2018-06-30T21:46:41.278Z,18.83
2018-06-30T21:49:10.072Z,18.82
2018-06-30T21:51:38.978Z,18.82
2018-06-30T21:54:08.527Z,18.79
2018-06-30T21:56:37.694Z,18.73
2018-06-30T21:59:06.657Z,18.74
2018-06-30T22:01:35.555Z,18.70
2018-06-30T22:04:04.595Z,18.66
2018-06-30T22:06:33.473Z,18.61
2018-06-30T22:09:02.184Z,18.58
2018-06-30T22:11:31.251Z,18.58
2018-06-30T22:14:00.058Z,18.56
2018-06-30T22:16:28.743Z,18.58
2018-06-30T22:18:57.549Z,18.46
2018-06-30T22:21:26.175Z,18.38
2018-06-30T22:23:55.134Z,18.37
2018-06-30T22:26:23.981Z,18.36
2018-06-30T22:28:52.952Z,18.38
2018-06-30T22:31:21.899Z,18.27
2018-06-30T22:33:50.881Z,18.20
2018-06-30T22:36:19.841Z,18.21
2018-06-30T22:38:48.823Z,18.16
2018-06-30T22:41:17.547Z,18.14
2018-06-30T22:43:46.690Z,18.07
2018-06-30T22:46:15.744Z,18.02
2018-06-30T22:48:44.397Z,17.98
2018-06-30T22:51:13.011Z,17.98
2018-06-30T22:53:41.704Z,18.01
2018-06-30T22:56:10.329Z,17.96
2018-06-30T22:58:39.800Z,17.86
2018-06-30T23:01:08.877Z,17.82
2018-06-30T23:03:37.543Z,17.83
2018-06-30T23:06:06.672Z,17.77
2018-06-30T23:08:41.748Z,17.74
2018-06-30T23:11:10.394Z,17.70
2018-06-30T23:13:39.690Z,17.67
2018-06-30T23:16:08.729Z,17.67
2018-06-30T23:18:37.415Z,17.68
2018-06-30T23:21:06.551Z,17.67
2018-06-30T23:23:36.328Z,17.66
2018-06-30T23:26:05.430Z,17.65
2018-06-30T23:28:34.046Z,17.66
2018-06-30T23:31:03.121Z,17.58
2018-06-30T23:33:31.753Z,17.54
2018-06-30T23:36:01.054Z,17.55
2018-06-30T23:38:30.587Z,17.49
2018-06-30T23:40:59.851Z,17.45
2018-06-30T23:43:28.778Z,17.43
2018-06-30T23:45:57.410Z,17.46
2018-06-30T23:48:26.437Z,17.37
2018-06-30T23:50:55.161Z,17.30
2018-06-30T23:53:23.914Z,17.30
2018-06-30T23:55:52.582Z,17.25
2018-06-30T23:58:21.224Z,17.29
